Flight Track Log - Related Links

Times and Time Zones

All times are in EDT time to prevent confusion due to time zone crossing. See the SWA558 flight status page for this flight to view local times or setup timezone preferences in your user account.

Time Position Orientation Groundspeed Altitude Reporting Facility
EDT Latitude Longitude Course Direction KTS MPH feet Rate Location/Type
Fri 12:25:27 PM 26.6778 -81.7314 346° North 251 289 5,100  Level Miami Center
Fri 12:26:27 PM 26.7528 -81.7347 358° North 287 330 7,900 2,500 Climbing Miami Center
Fri 12:27:27 PM 26.8217 -81.7375 358° North 287 330 10,100 2,150 Climbing Miami Center
Fri 12:28:27 PM 26.9111 -81.7436 357° North 298 343 12,200 2,650 Climbing Miami Center
Fri 12:29:00 PM 27.1295 -81.7814 336° Northwest  Level FlightAware Approximate
Fri 12:29:27 PM 27.0092 -81.7478 358° North 326 375 15,400  Level Miami Center
Fri 12:30:00 PM 27.2278 -81.8079 346° North  Level FlightAware Approximate
Fri 12:30:27 PM 27.1106 -81.7753 346° North 350 403 17,800  Level Miami Center
Fri 12:31:27 PM 27.2281 -81.8131 344° North 384 442 20,600 2,650 Climbing Miami Center
Fri 12:32:27 PM 27.3375 -81.8456 345° North 400 460 23,100 2,200 Climbing Miami Center
Fri 12:33:27 PM 27.4389 -81.8711 347° North 406 467 25,000 1,700 Climbing Miami Center
Fri 12:34:27 PM 27.5547 -81.9019 347° North 421 484 26,500 1,710 Climbing Miami Center
Fri 12:36:40 PM 27.8442 -81.9750 347° North 453 521 30,500 1,803 Climbing Jacksonville Center
Fri 12:37:40 PM 27.9592 -82.0067 346° North 447 514 32,300 1,850 Climbing Jacksonville Center
Fri 12:38:40 PM 28.0681 -82.0647 335° Northwest 432 497 34,200 1,750 Climbing Jacksonville Center
Fri 12:39:40 PM 28.1789 -82.1108 340° North 421 484 35,800 1,550 Climbing Jacksonville Center
Fri 12:40:40 PM 28.2897 -82.1453 345° North 409 471 37,300 1,100 Climbing Jacksonville Center
Fri 12:41:40 PM 28.3983 -82.1775 345° North 409 471 38,000 350 Climbing Jacksonville Center
Fri 12:42:40 PM 28.5069 -82.2147 343° North 404 465 38,000  Level Jacksonville Center
Fri 12:43:40 PM 28.6178 -82.2444 347° North 404 465 38,000  Level Jacksonville Center
Fri 12:44:40 PM 28.7267 -82.2817 343° North 404 465 38,000  Level Jacksonville Center
Fri 12:45:40 PM 28.8372 -82.3189 344° North 404 465 38,000  Level Jacksonville Center
Fri 12:46:40 PM 28.9314 -82.3444 347° North 404 465 38,000  Level Jacksonville Center
Fri 12:47:40 PM 29.0400 -82.3819 343° North 398 458 38,000  Level Jacksonville Center
Fri 12:48:40 PM 29.1486 -82.4147 345° North 398 458 38,000  Level Jacksonville Center
Fri 12:49:40 PM 29.2553 -82.4475 345° North 398 458 38,000  Level Jacksonville Center
Fri 12:50:40 PM 29.3619 -82.4828 344° North 398 458 38,000  Level Jacksonville Center
Fri 12:51:40 PM 29.4683 -82.5156 345° North 398 458 38,000  Level Jacksonville Center
Fri 12:52:40 PM 29.5772 -82.5486 345° North 398 458 38,000  Level Jacksonville Center
Fri 12:53:40 PM 29.6858 -82.5817 345° North 398 458 38,000  Level Jacksonville Center
Fri 12:54:40 PM 29.7922 -82.6175 344° North 398 458 38,000  Level Jacksonville Center
Fri 12:55:40 PM 29.9092 -82.6603 342° North 398 458 38,000  Level Jacksonville Center
Fri 12:56:40 PM 30.0178 -82.6958 344° North 398 458 38,000  Level Jacksonville Center
Fri 12:57:40 PM 30.1161 -82.7219 347° North 398 458 38,000  Level Jacksonville Center
Fri 12:58:40 PM 30.2225 -82.7581 344° North 398 458 38,000  Level Jacksonville Center
Fri 12:59:40 PM 30.3311 -82.7914 345° North 398 458 38,000  Level Jacksonville Center
Fri 01:00:40 PM 30.4356 -82.8275 343° North 398 458 38,000  Level Jacksonville Center
Fri 01:01:40 PM 30.5422 -82.8636 344° North 398 458 38,000  Level Jacksonville Center
Fri 01:02:40 PM 30.6592 -82.9047 343° North 398 458 38,000  Level Jacksonville Center
Fri 01:03:40 PM 30.7656 -82.9408 344° North 398 458 38,000  Level Jacksonville Center
Fri 01:04:40 PM 30.8742 -82.9750 345° North 398 458 38,000  Level Jacksonville Center
Fri 01:05:40 PM 30.9825 -83.0064 346° North 398 458 38,000  Level Jacksonville Center
Fri 01:06:40 PM 31.0869 -83.0406 344° North 398 458 38,000  Level Jacksonville Center
Fri 01:07:40 PM 31.1872 -83.0869 338° Northwest 398 458 38,000  Level Jacksonville Center
Fri 01:08:40 PM 31.3019 -83.1161 348° North 398 458 38,000  Level Jacksonville Center
Fri 01:11:29 PM 31.5831 -83.2075 345° North 393 452 38,000  Level Atlanta Center
Fri 01:12:29 PM 31.6939 -83.2481 343° North 393 452 38,000  Level Atlanta Center
Fri 01:13:29 PM 31.7964 -83.2839 343° North 393 452 38,000  Level Atlanta Center
Fri 01:14:29 PM 31.9031 -83.3172 345° North 393 452 38,000  Level Atlanta Center
Fri 01:15:29 PM 32.0097 -83.3556 343° North 398 458 38,000  Level Atlanta Center
Fri 01:16:29 PM 32.1164 -83.3889 345° North 398 458 38,000  Level Atlanta Center
Fri 01:17:29 PM 32.2250 -83.4250 344° North 398 458 38,000  Level Atlanta Center
Fri 01:18:29 PM 32.3297 -83.4636 343° North 398 458 38,000  Level Atlanta Center
Fri 01:19:29 PM 32.4342 -83.4975 345° North 398 458 38,000  Level Atlanta Center
Fri 01:20:29 PM 32.5408 -83.5361 343° North 398 458 38,000  Level Atlanta Center
Fri 01:21:29 PM 32.6453 -83.5725 344° North 398 458 38,000  Level Atlanta Center
Fri 01:22:29 PM 32.7478 -83.6067 344° North 398 458 38,000  Level Atlanta Center
Fri 01:23:29 PM 32.8522 -83.6433 344° North 398 458 38,000  Level Atlanta Center
Fri 01:24:29 PM 32.9547 -83.6775 344° North 387 445 38,000  Level Atlanta Center
Fri 01:25:29 PM 33.0694 -83.7167 344° North 381 438 38,000  Level Atlanta Center
Fri 01:26:29 PM 33.1697 -83.7533 343° North 381 438 38,000  Level Atlanta Center
Fri 01:27:29 PM 33.2742 -83.7878 345° North 381 438 38,000  Level Atlanta Center
Fri 01:28:29 PM 33.3786 -83.8250 343° North 381 438 38,000  Level Atlanta Center
Fri 01:29:29 PM 33.4831 -83.8594 345° North 386 444 38,000  Level Atlanta Center
Fri 01:30:29 PM 33.5875 -83.8967 343° North 386 444 38,000  Level Atlanta Center
Fri 01:31:29 PM 33.6939 -83.9339 344° North 386 444 38,000  Level Atlanta Center
Fri 01:32:29 PM 33.8006 -83.9714 344° North 386 444 38,000  Level Atlanta Center
Fri 01:33:29 PM 33.8944 -84.0039 344° North 391 450 38,000  Level Atlanta Center
Fri 01:34:29 PM 34.0008 -84.0414 344° North 391 450 38,000  Level Atlanta Center
Fri 01:35:29 PM 34.1072 -84.0789 344° North 391 450 38,000  Level Atlanta Center
Fri 01:36:29 PM 34.2139 -84.1167 344° North 398 458 38,000  Level Atlanta Center
Fri 01:37:29 PM 34.3203 -84.1544 344° North 398 458 38,000  Level Atlanta Center
Fri 01:38:29 PM 34.4267 -84.1925 344° North 398 458 38,000  Level Atlanta Center
Fri 01:39:29 PM 34.5308 -84.2331 342° North 398 458 38,000  Level Atlanta Center
Fri 01:40:29 PM 34.6331 -84.2686 344° North 392 451 38,000  Level Atlanta Center
Fri 01:41:29 PM 34.7372 -84.3042 344° North 387 445 38,000  Level Atlanta Center
Fri 01:42:29 PM 34.8375 -84.3425 343° North 376 433 38,000  Level Atlanta Center
Fri 01:43:29 PM 34.9353 -84.3783 343° North 376 433 38,000  Level Atlanta Center
Fri 01:44:29 PM 35.0356 -84.4167 343° North 370 426 38,000  Level Atlanta Center
Fri 01:45:29 PM 35.1375 -84.4528 344° North 370 426 38,000  Level Atlanta Center
Fri 01:46:29 PM 35.2397 -84.4914 343° North 380 437 38,000  Level Atlanta Center
Fri 01:47:29 PM 35.3439 -84.5275 344° North 385 443 38,000  Level Atlanta Center
Fri 01:48:29 PM 35.4417 -84.5639 343° North 379 436 38,000  Level Atlanta Center
Fri 01:49:29 PM 35.5417 -84.6003 344° North 374 430 38,000  Level Atlanta Center
Fri 01:50:29 PM 35.6397 -84.6367 343° North 374 430 38,000  Level Atlanta Center
Fri 01:51:29 PM 35.7375 -84.6733 343° North 363 418 38,000  Level Atlanta Center
Fri 01:52:29 PM 35.8353 -84.7047 345° North 363 418 38,000  Level Atlanta Center
Fri 01:54:07 PM 35.9928 -84.7669 342° North 371 427 38,000  Level Indianapolis Center
Fri 01:55:09 PM 36.1111 -84.8108 343° North 373 429 38,000  Level Indianapolis Center
Fri 01:56:10 PM 36.2092 -84.8483 343° North 373 429 38,000  Level Indianapolis Center
Fri 01:57:12 PM 36.3089 -84.8856 343° North 373 429 38,000  Level Indianapolis Center
Fri 01:58:14 PM 36.4089 -84.9236 343° North 376 433 38,000  Level Indianapolis Center
Fri 01:59:16 PM 36.5094 -84.9608 343° North 377 434 38,000  Level Indianapolis Center
Fri 02:00:17 PM 36.6100 -84.9992 343° North 378 435 38,000  Level Indianapolis Center
Fri 02:01:19 PM 36.7297 -85.0450 343° North 376 433 38,000  Level Indianapolis Center
Fri 02:02:21 PM 36.8303 -85.0844 343° North 377 434 38,000  Level Indianapolis Center
Fri 02:03:23 PM 36.9292 -85.1206 344° North 373 429 38,000  Level Indianapolis Center
Fri 02:04:25 PM 37.0303 -85.1592 343° North 377 434 38,000  Level Indianapolis Center
Fri 02:05:26 PM 37.1417 -85.2022 343° North 379 436 38,000  Level Indianapolis Center
Fri 02:06:28 PM 37.2425 -85.2408 343° North 379 436 38,000  Level Indianapolis Center
Fri 02:07:30 PM 37.3450 -85.2808 343° North 383 441 38,000  Level Indianapolis Center
Fri 02:08:32 PM 37.4511 -85.3103 348° North 389 448 38,000  Level Indianapolis Center
Fri 02:09:34 PM 37.5567 -85.3350 349° North 387 445 38,000  Level Indianapolis Center
Fri 02:10:35 PM 37.6608 -85.3583 350° North 381 438 38,000  Level Indianapolis Center
Fri 02:11:37 PM 37.7647 -85.3833 349° North 380 437 38,000  Level Indianapolis Center
Fri 02:12:39 PM 37.8814 -85.4094 350° North 387 445 38,000  Level Indianapolis Center
Fri 02:13:41 PM 37.9861 -85.4350 349° North 383 441 38,000  Level Indianapolis Center
Fri 02:14:42 PM 38.0917 -85.4594 350° North 384 442 38,000  Level Indianapolis Center
Fri 02:15:44 PM 38.1969 -85.4842 350° North 384 442 38,000  Level Indianapolis Center
Fri 02:16:46 PM 38.3017 -85.5103 349° North 384 442 38,000 -871 Level Indianapolis Center
Fri 02:17:48 PM 38.4286 -85.5394 350° North 384 442 36,200 -1,463 Descending Indianapolis Center
Fri 02:18:49 PM 38.5333 -85.5650 349° North 385 443 35,000 -585 Descending Indianapolis Center
Fri 02:19:51 PM 38.6503 -85.5931 349° North 397 457 35,000  Level Indianapolis Center
Fri 02:20:48 PM 38.7414 -85.6150 349° North 397 457 35,000  Level Indianapolis Center
Fri 02:21:50 PM 38.8503 -85.6411 349° North 397 457 35,000 -146 Level Indianapolis Center
Fri 02:22:51 PM 38.9589 -85.6672 349° North 395 455 34,700 -1,122 Descending Indianapolis Center
Fri 02:23:53 PM 39.0661 -85.6794 355° North 393 452 32,700 -2,049 Descending Indianapolis Center
Fri 02:24:54 PM 39.1944 -85.6675 North 393 452 30,500 -1,317 Descending Indianapolis Center
Fri 02:25:56 PM 39.3000 -85.6608 North 381 438 30,000 -488 Descending Indianapolis Center
Fri 02:26:57 PM 39.4078 -85.6519 North 385 443 29,500 -829 Descending Indianapolis Center
Fri 02:27:59 PM 39.5153 -85.6469 North 386 444 28,300 -1,065 Descending Indianapolis Center
Fri 02:29:01 PM 39.6203 -85.6431 North 380 437 27,300 -976 Descending Indianapolis Center
Fri 02:30:02 PM 39.7236 -85.6400 North 373 429 26,300 -634 Descending Indianapolis Center
Fri 02:31:04 PM 39.8222 -85.6594 351° North 364 419 26,000 -145 Descending Indianapolis Center
Fri 02:32:06 PM 39.9319 -85.7222 336° Northwest 368 423 26,000 -387 Level Indianapolis Center
Fri 02:33:08 PM 40.0250 -85.7739 337° Northwest 364 419 25,200 -871 Descending Indianapolis Center
Fri 02:34:10 PM 40.1122 -85.8233 337° Northwest 345 397 24,200 -791 Descending Indianapolis Center
Fri 02:34:39 PM 40.1536 -85.8458 337° Northwest 332 382 24,000 -132 Descending Chicago Center
Fri 02:35:41 PM 40.2389 -85.9050 332° Northwest 343 395 24,000 -97 Level Chicago Center
Fri 02:36:43 PM 40.3269 -85.9592 335° Northwest 347 399 23,800 -677 Descending Chicago Center
Fri 02:37:45 PM 40.4103 -86.0136 334° Northwest 337 388 22,600 -1,113 Descending Chicago Center
Fri 02:38:47 PM 40.5025 -86.0728 334° Northwest 320 368 21,500 -1,065 Descending Chicago Center
Fri 02:39:49 PM 40.5819 -86.1253 333° Northwest 317 365 20,400 -1,113 Descending Chicago Center
Fri 02:40:51 PM 40.6608 -86.1767 334° Northwest 316 364 19,200 -1,113 Descending Chicago Center
Fri 02:41:53 PM 40.7342 -86.2250 333° Northwest 307 353 18,100 -1,355 Descending Chicago Center
Fri 02:42:55 PM 40.8086 -86.2742 333° Northwest 300 345 16,400 -1,632 Descending Chicago Center
Fri 02:43:58 PM 40.8847 -86.3239 334° Northwest 306 352 14,700 -1,776 Descending Chicago Center
Fri 02:45:00 PM 40.9769 -86.3847 334° Northwest 309 356 12,700 -1,742 Descending Chicago Center
Fri 02:46:02 PM 41.0592 -86.4508 329° Northwest 344 396 11,100 -1,258 Descending Chicago Center
Fri 02:47:04 PM 41.1192 -86.5406 312° West 325 374 10,100 -532 Descending Chicago Center
Fri 02:48:06 PM 41.1800 -86.6353 310° West 333 383 10,000 -48 Descending Chicago Center
Fri 02:49:08 PM 41.2481 -86.7411 311° West 332 382 10,000  Level Chicago Center
Fri 02:50:10 PM 41.3081 -86.8347 310° West 334 384 10,000  Level Chicago Center
Fri 02:51:12 PM 41.3672 -86.9258 311° West 331 381 10,000 -629 Level Chicago Center
Fri 02:52:14 PM 41.4164 -87.0042 310° West 286 329 8,700 -1,306 Descending Chicago Center
Fri 02:53:16 PM 41.4658 -87.0811 311° West 278 320 7,300 -1,397 Descending Chicago Center
Fri 02:54:10 PM 41.5167 -87.1667 308° West 269 310 6,000 -684 Descending Chicago TRACON
Fri 02:55:10 PM 41.5500 -87.2500 298° West 265 305 6,000 -429 Level Chicago TRACON
Fri 02:56:16 PM 41.5833 -87.3500 294° West 262 302 5,100 -898 Descending Chicago TRACON
Fri 02:57:17 PM 41.6167 -87.4333 298° West 257 296 4,100 -595 Descending Chicago TRACON
Fri 02:58:17 PM 41.6333 -87.5167 285° West 251 289 3,900 -211 Descending Chicago TRACON
Fri 02:59:11 PM 41.6667 -87.6000 298° West 240 276 3,700 -500 Descending Chicago TRACON
Fri 02:59:29 PM 41.6836 -87.6119 332° Northwest 250 288 3,300 -1,300 Descending Chicago Center
Fri 03:00:11 PM 41.7167 -87.6500 319° Northwest 222 255 2,400 -778 Descending Chicago TRACON
Fri 03:01:17 PM 41.7667 -87.6833 334° Northwest 187 215 1,900 -571 Descending Chicago TRACON
Fri 03:02:17 PM 41.8167 -87.7167 334° Northwest 152 175 1,200 -700 Descending Chicago TRACON
Fri 03:04:00 PM 41.7833 -87.7500 334° Northwest  Level FlightAware Approximate
Fri 03:11:00 PM 41.7860 -87.7524 334° Northwest  Level Estimated

Login

Don't have an account? Register now (free) for customized features, flight alerts, and more!